< Cyclone 200705 2007 Season Cyclone 200712 >
Cyclone 200711 (GEORGE)
General InformationTrack Information on Google MapsDetailed Wind InformationList of All Images || ResourceGoogle EarthGE AnimationAtom FeedGeoJSON
Detalied Best Track (Time Zone = UTC)
Year Month Day Hour Lat. Long. Pressure (hPa) Wind (kt) Class Image Chart
2007 2 27 00 -12.0 135.2 1002 0 0 Image --
2007 2 27 06 -12.0 134.6 998 0 0 Image --
2007 2 27 12 -12.1 134.8 1001 0 0 Image --
2007 2 27 18 -12.1 134.8 998 0 0 Image --
2007 2 28 00 -12.2 134.5 999 0 0 Image --
2007 2 28 06 -12.1 134.9 997 0 0 Image --
2007 2 28 12 -12.2 134.9 997 0 0 Image --
2007 2 28 18 -12.3 135.7 994 0 0 Image --
2007 3 1 00 -12.5 135.4 997 0 0 Image --
2007 3 1 06 -12.8 135.5 996 0 0 Image --
2007 3 1 12 -12.9 135.0 997 0 0 Image --
2007 3 1 18 -13.0 134.2 995 0 0 Image --
2007 3 2 00 -13.0 133.8 998 0 0 Image --
2007 3 2 06 -12.9 133.2 995 0 0 Image --
2007 3 2 12 -13.0 132.6 997 0 0 Image --
2007 3 2 18 -13.1 131.4 995 25 2 Image --
2007 3 3 00 -13.3 130.7 997 25 2 Image --
2007 3 3 06 -13.8 130.1 996 25 2 Image --
2007 3 3 12 -14.0 129.4 994 30 2 Image --
2007 3 3 18 -14.4 129.2 989 40 3 Image --
2007 3 4 00 -14.5 128.5 982 50 4 Image --
2007 3 4 06 -14.3 127.9 986 40 3 Image --
2007 3 4 12 -14.3 127.3 993 30 2 Image --
2007 3 4 18 -14.2 126.4 986 40 3 Image --
2007 3 5 00 -14.4 125.5 990 30 2 Image --
2007 3 5 06 -14.4 124.9 982 40 3 Image --
2007 3 5 12 -14.4 124.1 980 45 3 Image --
2007 3 5 18 -14.4 123.2 976 50 4 Image --
2007 3 6 00 -14.4 122.4 976 50 4 Image --
2007 3 6 06 -14.4 121.6 974 50 4 Image --
2007 3 6 12 -14.5 120.9 978 45 3 Image --
2007 3 6 18 -14.8 120.2 978 45 3 Image --
2007 3 7 00 -14.9 119.6 974 50 4 Image --
2007 3 7 06 -15.3 119.3 964 60 4 Image --
2007 3 7 12 -16.0 119.3 956 70 5 Image --
2007 3 7 18 -16.7 119.3 952 75 5 Image --
2007 3 8 00 -17.6 119.3 930 90 5 Image --
2007 3 8 01 -17.8 119.3 930 90 0 Image --
2007 3 8 02 -18.0 119.2 930 90 0 Image --
2007 3 8 03 -18.2 119.2 930 90 5 Image --
2007 3 8 04 -18.4 119.2 928 91.6667 0 Image --
2007 3 8 05 -18.6 119.1 926 93.3333 0 Image --
2007 3 8 06 -18.7 119.0 924 95 5 Image --
2007 3 8 07 -18.8 119.0 919.333 98.3333 0 Image --
2007 3 8 08 -19.0 119.1 914.667 101.667 0 Image --
2007 3 8 09 -19.2 119.1 910 105 5 Image --
2007 3 8 10 -19.4 119.1 907.333 106.667 0 Image --
2007 3 8 11 -19.6 119.1 904.667 108.333 0 Image --
2007 3 8 12 -19.8 119.1 902 110 5 Image --
2007 3 8 13 -20.0 119.0 909.333 105 0 Image --
2007 3 8 14 -20.1 119.0 916.667 100 0 Image --
2007 3 8 15 -20.3 119.0 924 95 5 Image --
2007 3 8 16 -20.5 118.8 932.667 88.3333 0 Image --
2007 3 8 17 -20.6 118.8 941.333 81.6667 0 Image --
2007 3 8 18 -20.8 118.8 950 75 5 Image --
2007 3 8 21 -21.2 118.9 958 65 5 Image --
2007 3 9 00 -21.5 119.0 966 55 4 Image --
2007 3 9 03 -21.8 119.2 974 50 4 Image --
2007 3 9 06 -22.0 119.5 978 45 3 Image --
2007 3 9 12 -22.5 120.4 984 40 3 Image --
2007 3 9 18 -23.0 121.0 986 35 3 Image --
2007 3 10 00 -23.5 121.7 988 30 2 Image --
2007 3 10 06 -23.9 122.0 986 30 2 Image --
2007 3 10 12 -24.3 122.3 986 30 2 Image --
2007 3 10 18 -24.8 122.9 988 30 2 Image --
2007 3 11 00 -25.1 123.6 990 25 2 Image --
2007 3 11 06 -25.5 124.2 992 25 2 Image --
2007 3 11 12 -25.8 124.6 994 25 2 Image --
2007 3 11 18 -26.1 125.0 996 25 2 Image --
2007 3 12 00 -26.9 124.2 1000 20 2 Image --
2007 3 12 06 -27.3 124.4 1000 20 2 Image --
< Cyclone 200705 2007 Season Cyclone 200712 >

Help